Portada
METAR-TAF:

METAR-TAF

Aeropuertos :

Koror, Babeldaob, Palaos

Aeropuerto Internacional Roman Tmetuchl

latitud: 07-22N, longitud: 134-32E, altitud: 54 m

Observación

El informe se hizo hace 11 minutos, a las 01:52 UTC
Viento 10 kt del este-noreste
Temperatura 31°C
Humedad 63%
Presión 1009 hPa
Visibilidad: 24.1 km
Escasas nubes a una altura de 1000 ft
Nubes dispersas a una altura de 1600 ft
Cielo nuboso a una altura de 12000 ft
Cielo nuboso a una altura de 30000 ft

METAR: PTRO 230152Z 06010KT 15SM FEW010 SCT016 BKN120 BKN300 31/23 A2979

Hora: 11:03 (02:03 UTC)

Pronóstico

El informe se hizo hace 2 horas y 37 minutos, a las 23:26 UTC
Pronóstico válido del 23 a las 00 UTC al 23 a las 24 UTC
Viento 9 kt del noreste
Visibilidad: 10 km
Escasas nubes a una altura de 1600 ft
Nubes dispersas a una altura de 12000 ft
chaparrones en las proximidades

TAF: PTRO 222326Z 2300/2324 05009KT P6SM VCSH FEW016 SCT120

Observaciones y pronósticos meteorológicos de más de 4000 aeropuertos (mensajes METAR y TAF).

Los puntos amarillos y rojos representan las estaciones disponibles.

Ponga el ratón en el punto deseado para ver el nombre de la estación.

Haga clic para ver las observaciones y los pronósticos meteorológicos.

Para cambiar el mapa : haga clic en los botones verdes con una cruz de color negro para hacer un zoom, en el botón verde con un guión para alejar o en las flechas verdes para mapas adyacentes.


METAR-TAF: